sensor_id;sensor_type;location;lat;lon;timestamp;pressure;altitude;pressure_sealevel;temperature;humidity
4392;BME280;2210;51.938;8.488;2023-02-04T00:00:56;101850.44;;;5.82;100.00
4392;BME280;2210;51.938;8.488;2023-02-04T00:05:15;101859.34;;;5.84;100.00
4392;BME280;2210;51.938;8.488;2023-02-04T00:09:16;101857.97;;;5.88;100.00
4392;BME280;2210;51.938;8.488;2023-02-04T00:13:26;101848.56;;;5.82;100.00
4392;BME280;2210;51.938;8.488;2023-02-04T00:17:26;101846.00;;;5.81;100.00
4392;BME280;2210;51.938;8.488;2023-02-04T00:21:26;101859.00;;;5.79;100.00
4392;BME280;2210;51.938;8.488;2023-02-04T00:25:27;101876.44;;;5.78;100.00
4392;BME280;2210;51.938;8.488;2023-02-04T00:29:28;101876.44;;;5.78;100.00
4392;BME280;2210;51.938;8.488;2023-02-04T00:33:34;101891.84;;;5.79;100.00
4392;BME280;2210;51.938;8.488;2023-02-04T00:37:43;101879.88;;;5.80;100.00
4392;BME280;2210;51.938;8.488;2023-02-04T00:41:44;101885.69;;;5.85;100.00
4392;BME280;2210;51.938;8.488;2023-02-04T00:45:44;101891.50;;;5.82;100.00
4392;BME280;2210;51.938;8.488;2023-02-04T00:49:44;101892.53;;;5.81;100.00
4392;BME280;2210;51.938;8.488;2023-02-04T00:53:44;101894.41;;;5.80;100.00
4392;BME280;2210;51.938;8.488;2023-02-04T00:57:54;101906.22;;;5.81;100.00
4392;BME280;2210;51.938;8.488;2023-02-04T01:01:54;101918.00;;;5.81;100.00
4392;BME280;2210;51.938;8.488;2023-02-04T01:05:57;101936.47;;;5.79;100.00
4392;BME280;2210;51.938;8.488;2023-02-04T01:10:03;101940.75;;;5.82;100.00
4392;BME280;2210;51.938;8.488;2023-02-04T01:14:04;101945.56;;;5.80;100.00
4392;BME280;2210;51.938;8.488;2023-02-04T01:18:07;101944.53;;;5.81;100.00
4392;BME280;2210;51.938;8.488;2023-02-04T01:22:10;101948.31;;;5.80;100.00
4392;BME280;2210;51.938;8.488;2023-02-04T01:26:11;101950.03;;;5.81;100.00
4392;BME280;2210;51.938;8.488;2023-02-04T01:30:13;101956.34;;;5.81;100.00
4392;BME280;2210;51.938;8.488;2023-02-04T01:34:13;101971.38;;;5.77;100.00
4392;BME280;2210;51.938;8.488;2023-02-04T01:38:14;101973.94;;;5.79;100.00
4392;BME280;2210;51.938;8.488;2023-02-04T01:42:20;101971.22;;;5.79;100.00
4392;BME280;2210;51.938;8.488;2023-02-04T01:46:27;101981.50;;;5.77;100.00
4392;BME280;2210;51.938;8.488;2023-02-04T01:50:27;101982.50;;;5.76;100.00
4392;BME280;2210;51.938;8.488;2023-02-04T01:54:31;101979.06;;;5.73;100.00
4392;BME280;2210;51.938;8.488;2023-02-04T01:58:32;101973.09;;;5.70;100.00
4392;BME280;2210;51.938;8.488;2023-02-04T02:02:47;101989.69;;;5.68;100.00
4392;BME280;2210;51.938;8.488;2023-02-04T02:06:52;101998.91;;;5.67;100.00
4392;BME280;2210;51.938;8.488;2023-02-04T02:10:54;102007.81;;;5.69;100.00
4392;BME280;2210;51.938;8.488;2023-02-04T02:14:54;102004.56;;;5.66;100.00
4392;BME280;2210;51.938;8.488;2023-02-04T02:19:06;102009.34;;;5.64;100.00
4392;BME280;2210;51.938;8.488;2023-02-04T02:23:47;102026.94;;;5.61;100.00
4392;BME280;2210;51.938;8.488;2023-02-04T02:27:48;102033.13;;;5.63;100.00
4392;BME280;2210;51.938;8.488;2023-02-04T02:31:48;102032.41;;;5.61;100.00
4392;BME280;2210;51.938;8.488;2023-02-04T02:35:49;102035.16;;;5.61;100.00
4392;BME280;2210;51.938;8.488;2023-02-04T02:39:53;102050.91;;;5.59;100.00
4392;BME280;2210;51.938;8.488;2023-02-04T02:43:53;102058.41;;;5.57;100.00
4392;BME280;2210;51.938;8.488;2023-02-04T02:47:58;102069.34;;;5.57;100.00
4392;BME280;2210;51.938;8.488;2023-02-04T02:51:59;102066.41;;;5.50;100.00
4392;BME280;2210;51.938;8.488;2023-02-04T02:55:59;102061.44;;;5.46;100.00
4392;BME280;2210;51.938;8.488;2023-02-04T03:00:17;102060.91;;;5.42;100.00
4392;BME280;2210;51.938;8.488;2023-02-04T03:04:21;102059.34;;;5.39;100.00
4392;BME280;2210;51.938;8.488;2023-02-04T03:08:24;102070.97;;;5.33;100.00
4392;BME280;2210;51.938;8.488;2023-02-04T03:12:25;102055.41;;;5.34;100.00
4392;BME280;2210;51.938;8.488;2023-02-04T03:16:27;102070.97;;;5.33;100.00
4392;BME280;2210;51.938;8.488;2023-02-04T03:20:30;102070.81;;;5.35;100.00
4392;BME280;2210;51.938;8.488;2023-02-04T03:24:32;102077.13;;;5.35;100.00
4392;BME280;2210;51.938;8.488;2023-02-04T03:28:33;102083.47;;;5.36;100.00
4392;BME280;2210;51.938;8.488;2023-02-04T03:32:34;102100.38;;;5.39;100.00
4392;BME280;2210;51.938;8.488;2023-02-04T03:36:34;102102.13;;;5.40;100.00
4392;BME280;2210;51.938;8.488;2023-02-04T03:40:41;102104.13;;;5.38;100.00
4392;BME280;2210;51.938;8.488;2023-02-04T03:44:41;102120.56;;;5.38;100.00
4392;BME280;2210;51.938;8.488;2023-02-04T03:48:42;102116.63;;;5.41;100.00
4392;BME280;2210;51.938;8.488;2023-02-04T03:52:42;102117.50;;;5.42;100.00
4392;BME280;2210;51.938;8.488;2023-02-04T03:56:44;102123.47;;;5.37;100.00
4392;BME280;2210;51.938;8.488;2023-02-04T04:00:44;102122.63;;;5.36;100.00
4392;BME280;2210;51.938;8.488;2023-02-04T04:04:44;102132.00;;;5.34;100.00
4392;BME280;2210;51.938;8.488;2023-02-04T04:08:47;102143.09;;;5.32;100.00
4392;BME280;2210;51.938;8.488;2023-02-04T04:12:48;102153.50;;;5.29;100.00
4392;BME280;2210;51.938;8.488;2023-02-04T04:16:48;102150.94;;;5.27;100.00
4392;BME280;2210;51.938;8.488;2023-02-04T04:20:51;102168.22;;;5.28;100.00
4392;BME280;2210;51.938;8.488;2023-02-04T04:24:58;102174.19;;;5.31;100.00
4392;BME280;2210;51.938;8.488;2023-02-04T04:29:01;102185.31;;;5.30;100.00
4392;BME280;2210;51.938;8.488;2023-02-04T04:33:04;102184.47;;;5.29;100.00
4392;BME280;2210;51.938;8.488;2023-02-04T04:37:04;102189.09;;;5.37;100.00
4392;BME280;2210;51.938;8.488;2023-02-04T04:41:05;102185.47;;;5.28;100.00
4392;BME280;2210;51.938;8.488;2023-02-04T04:45:07;102181.91;;;5.28;100.00
4392;BME280;2210;51.938;8.488;2023-02-04T04:49:07;102188.09;;;5.12;100.00
4392;BME280;2210;51.938;8.488;2023-02-04T04:53:08;102209.25;;;5.10;100.00
4392;BME280;2210;51.938;8.488;2023-02-04T04:57:10;102202.72;;;5.02;100.00
4392;BME280;2210;51.938;8.488;2023-02-04T05:01:10;102207.97;;;4.96;100.00
4392;BME280;2210;51.938;8.488;2023-02-04T05:05:10;102212.59;;;4.95;100.00
4392;BME280;2210;51.938;8.488;2023-02-04T05:09:11;102216.00;;;4.97;100.00
4392;BME280;2210;51.938;8.488;2023-02-04T05:13:12;102223.19;;;4.98;100.00
4392;BME280;2210;51.938;8.488;2023-02-04T05:17:12;102230.03;;;4.76;100.00
4392;BME280;2210;51.938;8.488;2023-02-04T05:21:12;102242.66;;;4.77;100.00
4392;BME280;2210;51.938;8.488;2023-02-04T05:25:12;102248.84;;;4.79;100.00
4392;BME280;2210;51.938;8.488;2023-02-04T05:29:15;102263.34;;;4.80;100.00
4392;BME280;2210;51.938;8.488;2023-02-04T05:33:16;102257.13;;;4.69;100.00
4392;BME280;2210;51.938;8.488;2023-02-04T05:37:19;102258.53;;;4.73;100.00
4392;BME280;2210;51.938;8.488;2023-02-04T05:41:22;102266.75;;;4.64;100.00
4392;BME280;2210;51.938;8.488;2023-02-04T05:45:23;102269.38;;;4.65;100.00
4392;BME280;2210;51.938;8.488;2023-02-04T05:49:23;102295.41;;;4.60;100.00
4392;BME280;2210;51.938;8.488;2023-02-04T05:53:23;102296.56;;;4.57;100.00
4392;BME280;2210;51.938;8.488;2023-02-04T05:57:24;102300.34;;;4.56;100.00
4392;BME280;2210;51.938;8.488;2023-02-04T06:01:24;102305.41;;;4.51;100.00
4392;BME280;2210;51.938;8.488;2023-02-04T06:05:24;102315.97;;;4.36;100.00
4392;BME280;2210;51.938;8.488;2023-02-04T06:09:24;102324.63;;;4.31;100.00
4392;BME280;2210;51.938;8.488;2023-02-04T06:13:25;102320.44;;;4.37;100.00
4392;BME280;2210;51.938;8.488;2023-02-04T06:17:25;102319.88;;;4.33;100.00
4392;BME280;2210;51.938;8.488;2023-02-04T06:21:25;102325.81;;;4.19;100.00
4392;BME280;2210;51.938;8.488;2023-02-04T06:25:25;102328.16;;;4.14;100.00
4392;BME280;2210;51.938;8.488;2023-02-04T06:29:26;102333.63;;;4.14;100.00
4392;BME280;2210;51.938;8.488;2023-02-04T06:33:26;102348.72;;;4.08;100.00
4392;BME280;2210;51.938;8.488;2023-02-04T06:37:26;102356.00;;;4.17;100.00
4392;BME280;2210;51.938;8.488;2023-02-04T06:41:26;102354.22;;;3.98;100.00
4392;BME280;2210;51.938;8.488;2023-02-04T06:45:27;102366.75;;;3.91;100.00
4392;BME280;2210;51.938;8.488;2023-02-04T06:49:27;102356.13;;;3.88;100.00
4392;BME280;2210;51.938;8.488;2023-02-04T06:53:27;102359.59;;;3.80;100.00
4392;BME280;2210;51.938;8.488;2023-02-04T06:57:27;102376.56;;;3.64;100.00
4392;BME280;2210;51.938;8.488;2023-02-04T07:01:28;102384.44;;;3.67;100.00
4392;BME280;2210;51.938;8.488;2023-02-04T07:05:28;102387.91;;;3.60;100.00
4392;BME280;2210;51.938;8.488;2023-02-04T07:09:28;102393.66;;;3.47;100.00
4392;BME280;2210;51.938;8.488;2023-02-04T07:13:29;102401.13;;;3.45;100.00
4392;BME280;2210;51.938;8.488;2023-02-04T07:17:29;102392.38;;;3.31;100.00
4392;BME280;2210;51.938;8.488;2023-02-04T07:21:29;102400.13;;;3.26;100.00
4392;BME280;2210;51.938;8.488;2023-02-04T07:25:29;102400.53;;;3.12;100.00
4392;BME280;2210;51.938;8.488;2023-02-04T07:29:32;102414.59;;;3.17;100.00
4392;BME280;2210;51.938;8.488;2023-02-04T07:33:33;102417.31;;;3.17;100.00
4392;BME280;2210;51.938;8.488;2023-02-04T07:37:36;102418.59;;;3.13;100.00
4392;BME280;2210;51.938;8.488;2023-02-04T07:41:36;102422.31;;;3.12;100.00
4392;BME280;2210;51.938;8.488;2023-02-04T07:45:46;102433.69;;;3.17;100.00
4392;BME280;2210;51.938;8.488;2023-02-04T07:49:46;102445.47;;;3.17;100.00
4392;BME280;2210;51.938;8.488;2023-02-04T07:53:56;102452.59;;;3.09;100.00
4392;BME280;2210;51.938;8.488;2023-02-04T07:57:56;102444.56;;;3.17;100.00
4392;BME280;2210;51.938;8.488;2023-02-04T08:01:56;102446.75;;;3.23;100.00
4392;BME280;2210;51.938;8.488;2023-02-04T08:05:57;102447.75;;;3.32;100.00
4392;BME280;2210;51.938;8.488;2023-02-04T08:09:57;102444.47;;;3.48;100.00
4392;BME280;2210;51.938;8.488;2023-02-04T08:13:57;102458.69;;;3.51;100.00
4392;BME280;2210;51.938;8.488;2023-02-04T08:17:57;102453.66;;;3.66;100.00
4392;BME280;2210;51.938;8.488;2023-02-04T08:21:58;102459.41;;;3.73;100.00
4392;BME280;2210;51.938;8.488;2023-02-04T08:25:58;102469.00;;;3.87;100.00
4392;BME280;2210;51.938;8.488;2023-02-04T08:29:59;102469.56;;;4.00;100.00
4392;BME280;2210;51.938;8.488;2023-02-04T08:33:59;102477.91;;;4.09;100.00
4392;BME280;2210;51.938;8.488;2023-02-04T08:37:59;102485.78;;;4.12;100.00
4392;BME280;2210;51.938;8.488;2023-02-04T08:41:59;102492.50;;;4.27;100.00
4392;BME280;2210;51.938;8.488;2023-02-04T08:46:00;102493.22;;;4.29;100.00
4392;BME280;2210;51.938;8.488;2023-02-04T08:50:00;102503.97;;;4.41;100.00
4392;BME280;2210;51.938;8.488;2023-02-04T08:54:03;102496.44;;;4.62;100.00
4392;BME280;2210;51.938;8.488;2023-02-04T08:58:04;102508.00;;;4.84;100.00
4392;BME280;2210;51.938;8.488;2023-02-04T09:02:04;102502.34;;;4.95;100.00
4392;BME280;2210;51.938;8.488;2023-02-04T09:06:05;102510.19;;;4.80;100.00
4392;BME280;2210;51.938;8.488;2023-02-04T09:10:09;102507.56;;;4.79;100.00
4392;BME280;2210;51.938;8.488;2023-02-04T09:14:12;102513.88;;;4.89;100.00
4392;BME280;2210;51.938;8.488;2023-02-04T09:18:19;102514.19;;;4.86;100.00
4392;BME280;2210;51.938;8.488;2023-02-04T09:22:21;102517.03;;;4.94;100.00
4392;BME280;2210;51.938;8.488;2023-02-04T09:26:21;102524.72;;;5.09;100.00
4392;BME280;2210;51.938;8.488;2023-02-04T09:30:27;102533.63;;;5.11;100.00
4392;BME280;2210;51.938;8.488;2023-02-04T09:34:27;102539.34;;;5.17;100.00
4392;BME280;2210;51.938;8.488;2023-02-04T09:38:28;102534.31;;;5.13;100.00
4392;BME280;2210;51.938;8.488;2023-02-04T09:42:28;102532.63;;;5.12;100.00
4392;BME280;2210;51.938;8.488;2023-02-04T09:46:29;102543.34;;;5.23;100.00
4392;BME280;2210;51.938;8.488;2023-02-04T09:50:31;102541.22;;;5.45;100.00
4392;BME280;2210;51.938;8.488;2023-02-04T09:54:32;102547.00;;;5.42;100.00
4392;BME280;2210;51.938;8.488;2023-02-04T09:58:33;102553.47;;;5.40;100.00
4392;BME280;2210;51.938;8.488;2023-02-04T10:02:34;102552.16;;;5.45;99.25
4392;BME280;2210;51.938;8.488;2023-02-04T10:06:34;102554.97;;;5.53;97.83
4392;BME280;2210;51.938;8.488;2023-02-04T10:10:36;102551.31;;;5.62;95.44
4392;BME280;2210;51.938;8.488;2023-02-04T10:14:38;102554.72;;;5.74;95.27
4392;BME280;2210;51.938;8.488;2023-02-04T10:18:43;102564.19;;;5.98;94.56
4392;BME280;2210;51.938;8.488;2023-02-04T10:22:44;102571.13;;;5.92;93.18
4392;BME280;2210;51.938;8.488;2023-02-04T10:26:45;102572.19;;;6.09;94.58
4392;BME280;2210;51.938;8.488;2023-02-04T10:30:45;102570.81;;;5.95;91.34
4392;BME280;2210;51.938;8.488;2023-02-04T10:34:46;102577.03;;;6.15;91.88
4392;BME280;2210;51.938;8.488;2023-02-04T10:39:11;102575.56;;;6.03;90.85
4392;BME280;2210;51.938;8.488;2023-02-04T10:43:21;102580.94;;;6.13;91.39
4392;BME280;2210;51.938;8.488;2023-02-04T10:47:28;102576.06;;;6.43;90.13
4392;BME280;2210;51.938;8.488;2023-02-04T10:51:30;102573.75;;;6.56;88.44
4392;BME280;2210;51.938;8.488;2023-02-04T10:55:30;102574.31;;;6.60;85.74
4392;BME280;2210;51.938;8.488;2023-02-04T10:59:30;102566.25;;;6.58;83.75
4392;BME280;2210;51.938;8.488;2023-02-04T11:03:33;102577.00;;;6.51;84.53
4392;BME280;2210;51.938;8.488;2023-02-04T11:07:44;102574.88;;;6.45;84.66
4392;BME280;2210;51.938;8.488;2023-02-04T11:11:46;102579.34;;;6.46;83.58
4392;BME280;2210;51.938;8.488;2023-02-04T11:15:49;102577.78;;;6.44;80.78
4392;BME280;2210;51.938;8.488;2023-02-04T11:19:49;102575.31;;;6.85;82.66
4392;BME280;2210;51.938;8.488;2023-02-04T11:28:24;102575.38;;;6.67;77.70
4392;BME280;2210;51.938;8.488;2023-02-04T11:32:34;102581.13;;;6.55;77.81
4392;BME280;2210;51.938;8.488;2023-02-04T11:37:16;102581.66;;;6.59;79.38
4392;BME280;2210;51.938;8.488;2023-02-04T11:41:35;102587.75;;;6.71;78.90
4392;BME280;2210;51.938;8.488;2023-02-04T11:45:37;102590.03;;;6.57;79.45
4392;BME280;2210;51.938;8.488;2023-02-04T11:49:37;102590.75;;;6.41;78.50
4392;BME280;2210;51.938;8.488;2023-02-04T11:53:37;102589.31;;;6.29;77.78
4392;BME280;2210;51.938;8.488;2023-02-04T11:57:39;102589.13;;;6.49;81.33
4392;BME280;2210;51.938;8.488;2023-02-04T12:01:40;102595.97;;;6.45;78.76
4392;BME280;2210;51.938;8.488;2023-02-04T12:05:42;102590.09;;;6.39;77.11
4392;BME280;2210;51.938;8.488;2023-02-04T12:09:47;102589.47;;;6.28;78.22
4392;BME280;2210;51.938;8.488;2023-02-04T12:14:06;102591.75;;;6.32;80.64
4392;BME280;2210;51.938;8.488;2023-02-04T12:18:10;102586.84;;;6.62;80.30
4392;BME280;2210;51.938;8.488;2023-02-04T12:22:15;102582.63;;;6.50;76.38
4392;BME280;2210;51.938;8.488;2023-02-04T12:26:16;102585.22;;;6.51;77.16
4392;BME280;2210;51.938;8.488;2023-02-04T12:30:16;102596.00;;;6.53;77.79
4392;BME280;2210;51.938;8.488;2023-02-04T12:34:17;102595.13;;;6.70;74.98
4392;BME280;2210;51.938;8.488;2023-02-04T12:38:18;102603.56;;;6.77;76.40
4392;BME280;2210;51.938;8.488;2023-02-04T12:42:19;102601.72;;;6.86;76.49
4392;BME280;2210;51.938;8.488;2023-02-04T12:46:19;102600.03;;;6.93;75.01
4392;BME280;2210;51.938;8.488;2023-02-04T12:50:20;102613.25;;;6.89;74.99
4392;BME280;2210;51.938;8.488;2023-02-04T12:54:23;102606.47;;;6.75;72.75
4392;BME280;2210;51.938;8.488;2023-02-04T12:58:24;102608.16;;;6.77;73.45
4392;BME280;2210;51.938;8.488;2023-02-04T13:02:27;102607.91;;;6.88;72.70
4392;BME280;2210;51.938;8.488;2023-02-04T13:06:28;102606.88;;;6.89;74.67
4392;BME280;2210;51.938;8.488;2023-02-04T13:10:29;102604.28;;;6.87;73.02
4392;BME280;2210;51.938;8.488;2023-02-04T13:14:29;102593.94;;;6.99;73.89
4392;BME280;2210;51.938;8.488;2023-02-04T13:18:31;102605.59;;;7.01;74.04
4392;BME280;2210;51.938;8.488;2023-02-04T13:22:33;102598.81;;;7.14;73.80
4392;BME280;2210;51.938;8.488;2023-02-04T13:26:33;102591.25;;;7.16;72.38
4392;BME280;2210;51.938;8.488;2023-02-04T13:30:33;102587.72;;;7.23;75.15
4392;BME280;2210;51.938;8.488;2023-02-04T13:34:33;102592.53;;;7.30;73.70
4392;BME280;2210;51.938;8.488;2023-02-04T13:38:34;102600.63;;;7.31;74.32
4392;BME280;2210;51.938;8.488;2023-02-04T13:42:35;102597.94;;;7.13;73.17
4392;BME280;2210;51.938;8.488;2023-02-04T13:46:35;102591.94;;;7.09;73.95
4392;BME280;2210;51.938;8.488;2023-02-04T13:50:35;102606.78;;;6.99;75.20
4392;BME280;2210;51.938;8.488;2023-02-04T13:54:35;102603.53;;;7.03;74.66
4392;BME280;2210;51.938;8.488;2023-02-04T13:58:36;102610.03;;;7.02;76.14
4392;BME280;2210;51.938;8.488;2023-02-04T14:02:36;102612.28;;;6.99;75.08
4392;BME280;2210;51.938;8.488;2023-02-04T14:06:36;102615.88;;;6.99;75.52
4392;BME280;2210;51.938;8.488;2023-02-04T14:10:42;102617.22;;;6.95;74.51
4392;BME280;2210;51.938;8.488;2023-02-04T14:14:42;102611.19;;;6.91;75.00
4392;BME280;2210;51.938;8.488;2023-02-04T14:18:42;102611.56;;;6.97;73.98
4392;BME280;2210;51.938;8.488;2023-02-04T14:22:43;102605.94;;;7.06;75.62
4392;BME280;2210;51.938;8.488;2023-02-04T14:26:43;102608.41;;;7.09;77.14
4392;BME280;2210;51.938;8.488;2023-02-04T14:30:43;102619.44;;;7.00;76.16
4392;BME280;2210;51.938;8.488;2023-02-04T14:34:43;102614.19;;;6.80;76.52
4392;BME280;2210;51.938;8.488;2023-02-04T14:38:44;102621.03;;;6.76;77.21
4392;BME280;2210;51.938;8.488;2023-02-04T14:42:45;102614.53;;;6.77;78.36
4392;BME280;2210;51.938;8.488;2023-02-04T14:46:46;102614.09;;;6.64;76.77
4392;BME280;2210;51.938;8.488;2023-02-04T14:50:48;102617.63;;;6.56;80.16
4392;BME280;2210;51.938;8.488;2023-02-04T14:54:48;102611.50;;;6.44;80.25
4392;BME280;2210;51.938;8.488;2023-02-04T14:58:48;102605.28;;;6.34;81.44
4392;BME280;2210;51.938;8.488;2023-02-04T15:02:48;102620.47;;;6.28;82.23
4392;BME280;2210;51.938;8.488;2023-02-04T15:06:49;102625.25;;;6.26;83.03
4392;BME280;2210;51.938;8.488;2023-02-04T15:10:52;102620.59;;;6.27;83.85
4392;BME280;2210;51.938;8.488;2023-02-04T15:14:56;102622.81;;;6.23;83.89
4392;BME280;2210;51.938;8.488;2023-02-04T15:18:56;102627.28;;;6.24;83.24
4392;BME280;2210;51.938;8.488;2023-02-04T15:22:56;102631.03;;;6.23;82.86
4392;BME280;2210;51.938;8.488;2023-02-04T15:26:56;102629.72;;;6.27;84.28
4392;BME280;2210;51.938;8.488;2023-02-04T15:30:57;102638.53;;;6.21;86.28
4392;BME280;2210;51.938;8.488;2023-02-04T15:34:57;102636.03;;;6.10;85.53
4392;BME280;2210;51.938;8.488;2023-02-04T15:38:58;102633.06;;;6.03;86.70
4392;BME280;2210;51.938;8.488;2023-02-04T15:42:58;102637.56;;;5.94;87.64
4392;BME280;2210;51.938;8.488;2023-02-04T15:46:58;102633.72;;;5.87;88.19
4392;BME280;2210;51.938;8.488;2023-02-04T15:50:58;102627.44;;;5.77;88.42
4392;BME280;2210;51.938;8.488;2023-02-04T15:54:59;102632.03;;;5.76;88.10
4392;BME280;2210;51.938;8.488;2023-02-04T15:58:59;102652.00;;;5.68;90.89
4392;BME280;2210;51.938;8.488;2023-02-04T16:02:59;102643.38;;;5.63;89.74
4392;BME280;2210;51.938;8.488;2023-02-04T16:06:59;102652.28;;;5.65;89.74
4392;BME280;2210;51.938;8.488;2023-02-04T16:11:06;102651.16;;;5.58;88.97
4392;BME280;2210;51.938;8.488;2023-02-04T16:15:07;102658.41;;;5.49;90.13
4392;BME280;2210;51.938;8.488;2023-02-04T16:19:10;102663.31;;;5.46;90.01
4392;BME280;2210;51.938;8.488;2023-02-04T16:23:16;102662.06;;;5.40;90.60
4392;BME280;2210;51.938;8.488;2023-02-04T16:27:22;102662.06;;;5.40;91.03
4392;BME280;2210;51.938;8.488;2023-02-04T16:31:29;102658.66;;;5.28;90.91
4392;BME280;2210;51.938;8.488;2023-02-04T16:35:29;102661.94;;;5.32;92.70
4392;BME280;2210;51.938;8.488;2023-02-04T16:39:31;102652.94;;;5.12;92.93
4392;BME280;2210;51.938;8.488;2023-02-04T16:43:34;102657.69;;;5.10;92.87
4392;BME280;2210;51.938;8.488;2023-02-04T16:47:35;102665.47;;;5.04;93.68
4392;BME280;2210;51.938;8.488;2023-02-04T16:51:35;102658.00;;;5.06;93.79
4392;BME280;2210;51.938;8.488;2023-02-04T16:55:38;102666.63;;;5.12;94.98
4392;BME280;2210;51.938;8.488;2023-02-04T16:59:38;102667.63;;;5.11;95.39
4392;BME280;2210;51.938;8.488;2023-02-04T17:03:42;102680.16;;;5.03;95.51
4392;BME280;2210;51.938;8.488;2023-02-04T17:07:43;102684.91;;;5.01;96.64
4392;BME280;2210;51.938;8.488;2023-02-04T17:11:46;102689.66;;;5.09;95.29
4392;BME280;2210;51.938;8.488;2023-02-04T17:15:46;102704.19;;;5.00;96.92
4392;BME280;2210;51.938;8.488;2023-02-04T17:19:46;102701.91;;;4.95;96.92
4392;BME280;2210;51.938;8.488;2023-02-04T17:23:50;102706.34;;;4.96;96.06
4392;BME280;2210;51.938;8.488;2023-02-04T17:27:50;102703.50;;;4.88;97.13
4392;BME280;2210;51.938;8.488;2023-02-04T17:31:51;102705.53;;;4.86;97.12
4392;BME280;2210;51.938;8.488;2023-02-04T17:35:55;102697.47;;;4.84;97.84
4392;BME280;2210;51.938;8.488;2023-02-04T17:39:58;102703.94;;;4.83;97.82
4392;BME280;2210;51.938;8.488;2023-02-04T17:43:58;102709.56;;;4.82;97.84
4392;BME280;2210;51.938;8.488;2023-02-04T17:47:59;102701.91;;;4.76;98.62
4392;BME280;2210;51.938;8.488;2023-02-04T17:52:02;102698.03;;;4.78;99.91
4392;BME280;2210;51.938;8.488;2023-02-04T17:56:08;102695.03;;;4.71;98.35
4392;BME280;2210;51.938;8.488;2023-02-04T18:00:17;102691.16;;;4.64;99.85
4392;BME280;2210;51.938;8.488;2023-02-04T18:04:20;102700.91;;;4.57;100.00
4392;BME280;2210;51.938;8.488;2023-02-04T18:08:27;102698.91;;;4.49;100.00
4392;BME280;2210;51.938;8.488;2023-02-04T18:12:30;102697.34;;;4.47;100.00
4392;BME280;2210;51.938;8.488;2023-02-04T18:16:32;102701.91;;;4.36;100.00
4392;BME280;2210;51.938;8.488;2023-02-04T18:20:33;102695.72;;;4.15;100.00
4392;BME280;2210;51.938;8.488;2023-02-04T18:24:37;102694.00;;;4.14;100.00
4392;BME280;2210;51.938;8.488;2023-02-04T18:28:44;102693.41;;;4.10;100.00
4392;BME280;2210;51.938;8.488;2023-02-04T18:32:45;102692.28;;;4.13;100.00
4392;BME280;2210;51.938;8.488;2023-02-04T18:36:46;102701.91;;;4.07;100.00
4392;BME280;2210;51.938;8.488;2023-02-04T18:40:46;102694.00;;;4.14;100.00
4392;BME280;2210;51.938;8.488;2023-02-04T18:44:47;102694.84;;;4.04;100.00
4392;BME280;2210;51.938;8.488;2023-02-04T18:53:06;102713.06;;;3.94;100.00
4392;BME280;2210;51.938;8.488;2023-02-04T19:01:33;102720.16;;;3.76;100.00
4392;BME280;2210;51.938;8.488;2023-02-04T19:05:46;102723.47;;;3.69;100.00
4392;BME280;2210;51.938;8.488;2023-02-04T19:09:47;102729.22;;;3.66;100.00
4392;BME280;2210;51.938;8.488;2023-02-04T19:13:48;102735.72;;;3.54;100.00
4392;BME280;2210;51.938;8.488;2023-02-04T19:17:49;102739.16;;;3.46;100.00
4392;BME280;2210;51.938;8.488;2023-02-04T19:21:53;102743.34;;;3.29;100.00
4392;BME280;2210;51.938;8.488;2023-02-04T19:25:53;102750.22;;;3.24;100.00
4392;BME280;2210;51.938;8.488;2023-02-04T19:29:59;102742.84;;;3.14;100.00
4392;BME280;2210;51.938;8.488;2023-02-04T19:34:20;102738.31;;;3.03;100.00
4392;BME280;2210;51.938;8.488;2023-02-04T19:38:39;102736.19;;;3.07;100.00
4392;BME280;2210;51.938;8.488;2023-02-04T19:42:40;102734.31;;;3.08;100.00
4392;BME280;2210;51.938;8.488;2023-02-04T19:46:42;102728.34;;;3.14;100.00
4392;BME280;2210;51.938;8.488;2023-02-04T19:50:43;102727.03;;;3.08;100.00
4392;BME280;2210;51.938;8.488;2023-02-04T19:54:46;102721.97;;;3.03;100.00
4392;BME280;2210;51.938;8.488;2023-02-04T19:58:46;102740.31;;;3.01;100.00
4392;BME280;2210;51.938;8.488;2023-02-04T20:02:49;102734.00;;;3.01;100.00
4392;BME280;2210;51.938;8.488;2023-02-04T20:06:50;102728.81;;;2.98;100.00
4392;BME280;2210;51.938;8.488;2023-02-04T20:10:53;102728.41;;;3.02;100.00
4392;BME280;2210;51.938;8.488;2023-02-04T20:14:56;102733.41;;;2.97;100.00
4392;BME280;2210;51.938;8.488;2023-02-04T20:18:57;102729.41;;;3.01;100.00
4392;BME280;2210;51.938;8.488;2023-02-04T20:23:28;102732.47;;;2.87;100.00
4392;BME280;2210;51.938;8.488;2023-02-04T20:27:40;102734.47;;;2.85;100.00
4392;BME280;2210;51.938;8.488;2023-02-04T20:31:40;102723.56;;;2.85;100.00
4392;BME280;2210;51.938;8.488;2023-02-04T20:39:43;102724.50;;;2.74;100.00
4392;BME280;2210;51.938;8.488;2023-02-04T20:43:48;102731.28;;;2.80;100.00
4392;BME280;2210;51.938;8.488;2023-02-04T20:48:18;102721.16;;;2.70;100.00
4392;BME280;2210;51.938;8.488;2023-02-04T20:56:45;102704.06;;;2.68;100.00
4392;BME280;2210;51.938;8.488;2023-02-04T21:00:46;102698.88;;;2.65;100.00
4392;BME280;2210;51.938;8.488;2023-02-04T21:04:57;102694.19;;;2.67;100.00
4392;BME280;2210;51.938;8.488;2023-02-04T21:09:00;102696.91;;;2.67;100.00
4392;BME280;2210;51.938;8.488;2023-02-04T21:13:12;102695.19;;;2.66;100.00
4392;BME280;2210;51.938;8.488;2023-02-04T21:17:15;102693.31;;;2.67;100.00
4392;BME280;2210;51.938;8.488;2023-02-04T21:21:16;102687.50;;;2.60;100.00
4392;BME280;2210;51.938;8.488;2023-02-04T21:25:16;102692.91;;;2.50;100.00
4392;BME280;2210;51.938;8.488;2023-02-04T21:34:16;102700.94;;;2.52;100.00
4392;BME280;2210;51.938;8.488;2023-02-04T21:38:16;102715.78;;;2.48;100.00
4392;BME280;2210;51.938;8.488;2023-02-04T21:42:19;102710.13;;;2.51;100.00
4392;BME280;2210;51.938;8.488;2023-02-04T21:46:22;102707.50;;;2.49;100.00
4392;BME280;2210;51.938;8.488;2023-02-04T21:50:22;102705.56;;;2.40;100.00
4392;BME280;2210;51.938;8.488;2023-02-04T21:54:26;102705.34;;;2.32;100.00
4392;BME280;2210;51.938;8.488;2023-02-04T21:58:26;102696.94;;;2.35;100.00
4392;BME280;2210;51.938;8.488;2023-02-04T22:02:26;102689.41;;;2.27;100.00
4392;BME280;2210;51.938;8.488;2023-02-04T22:06:27;102685.97;;;2.25;100.00
4392;BME280;2210;51.938;8.488;2023-02-04T22:10:27;102697.75;;;2.14;100.00
4392;BME280;2210;51.938;8.488;2023-02-04T22:14:27;102691.41;;;2.14;100.00